LFLN/SYT METAR and TAF weather

Enter ICAO airport designator
Station Type Date Time Source
LFLN METAR 2022/01/26 21:00 UTC NOAA

LFLN 262100Z AUTO VRB02KT 0800 0750 R33/1000D FZFG VV/// M03/M03 Q1034 BECMG 0500 FZFG


Station Type Date Time Source
LFLN Decoded METAR 2022/01/26 21:00 UTC NOAA

Saint-Yan, France (LFLN) 46-25N 004-01E 244M
Jan 26, 2022 - 04:00 PM EST / 2022.01.26 2100 UTC
Wind: Variable at 2 MPH (2 KT):0
Visibility: less than 1 mile:0
Sky conditions: obscured
Weather: freezing fog
Temperature: 26 F (-3 C)
Dew Point: 26 F (-3 C)
Relative Humidity: 100%
Pressure (altimeter): 30.53 in. Hg (1034 hPa)
ob: LFLN 262100Z AUTO VRB02KT 0800 0750 R33/1000D FZFG VV/// M03/M03 Q1034 BECMG 0500 FZFG
cycle: 21

Station Type Date Time Source
LFLN TAF UTC NOAA

Error!

Example: see airport list